Time;durP1;ratioP1;P1;durP2;ratioP2;P2;SDS_P1;SDS_P2;PMS_P1;PMS_P2;Temp;Humidity;BMP_temperature;BMP_pressure;BME280_temperature;BME280_humidity;BME280_pressure;Samples;Min_cycle;Max_cycle;Signal;HPM_P1;HPM_P2
2021/07/09 00:00:43;;;;;;;3.80;2.00;;;22.20;69.80;;;;;;21079594;28;20527;-75
2021/07/09 00:10:44;;;;;;;2.70;1.55;;;22.20;69.80;;;;;;21062333;28;20038;-75
2021/07/09 00:20:44;;;;;;;2.28;1.60;;;22.30;69.80;;;;;;21045180;28;20085;-74
2021/07/09 00:30:45;;;;;;;1.50;1.35;;;22.20;69.80;;;;;;21043579;28;20048;-77
2021/07/09 00:40:46;;;;;;;2.17;1.55;;;22.30;69.80;;;;;;21078161;28;20035;-75
2021/07/09 00:50:46;;;;;;;1.83;1.40;;;22.30;69.80;;;;;;21043453;28;20502;-75
2021/07/09 01:00:47;;;;;;;2.45;1.52;;;22.20;69.70;;;;;;21042188;28;20089;-74
2021/07/09 01:10:48;;;;;;;1.83;1.48;;;22.20;69.80;;;;;;21042196;28;20028;-74
2021/07/09 01:20:48;;;;;;;2.33;1.70;;;22.20;69.70;;;;;;21040823;28;20059;-74
2021/07/09 01:30:49;;;;;;;2.08;1.60;;;22.20;69.70;;;;;;21042205;28;20122;-75
2021/07/09 01:40:50;;;;;;;1.42;1.33;;;22.10;69.70;;;;;;21041200;28;20093;-74
2021/07/09 01:50:50;;;;;;;1.30;1.20;;;22.10;69.60;;;;;;21066978;28;20040;-75
2021/07/09 02:00:51;;;;;;;1.58;1.40;;;22.20;69.70;;;;;;21073231;28;20064;-74
2021/07/09 02:10:51;;;;;;;2.00;1.80;;;22.10;69.60;;;;;;21054655;28;20040;-74
2021/07/09 02:20:52;;;;;;;1.63;1.30;;;22.10;69.70;;;;;;21054766;28;20690;-75
2021/07/09 02:30:53;;;;;;;1.83;1.33;;;22.10;69.70;;;;;;21070456;28;20127;-76
2021/07/09 02:40:53;;;;;;;2.50;1.75;;;22.10;69.70;;;;;;21069885;28;20032;-75
2021/07/09 02:50:54;;;;;;;2.38;2.08;;;22.10;69.70;;;;;;21069208;28;20062;-75
2021/07/09 03:00:54;;;;;;;1.63;1.42;;;22.10;69.60;;;;;;21084730;28;20028;-75
2021/07/09 03:10:55;;;;;;;3.00;1.75;;;22.10;69.70;;;;;;21066969;28;20066;-74
2021/07/09 03:20:56;;;;;;;1.58;1.33;;;22.10;69.70;;;;;;21083811;28;20032;-75
2021/07/09 03:30:56;;;;;;;2.95;1.67;;;22.00;69.60;;;;;;21032982;28;20501;-76
2021/07/09 03:40:57;;;;;;;2.33;1.88;;;22.10;69.70;;;;;;21049155;28;20031;-76
2021/07/09 03:50:57;;;;;;;3.20;1.80;;;22.00;69.60;;;;;;21031108;28;20085;-75
2021/07/09 04:00:58;;;;;;;2.30;1.70;;;22.00;69.60;;;;;;21063771;28;20438;-74
2021/07/09 04:10:58;;;;;;;2.40;1.87;;;22.00;69.60;;;;;;21062135;28;20032;-71
2021/07/09 04:20:59;;;;;;;2.33;1.92;;;22.00;69.60;;;;;;21041577;28;20377;-74
2021/07/09 04:31:00;;;;;;;2.22;1.55;;;22.00;69.60;;;;;;21059177;28;20050;-78
2021/07/09 04:41:00;;;;;;;1.83;1.60;;;22.00;69.60;;;;;;21044566;28;20036;-81
2021/07/09 04:51:01;;;;;;;2.53;1.77;;;22.00;69.70;;;;;;21041062;28;20064;-75
2021/07/09 05:01:02;;;;;;;2.80;1.90;;;22.00;69.70;;;;;;21059503;28;20559;-78
2021/07/09 05:11:03;;;;;;;4.57;1.90;;;22.00;69.70;;;;;;21043257;28;20039;-82
2021/07/09 05:21:04;;;;;;;2.45;1.70;;;21.90;69.70;;;;;;21025685;28;20049;-81
2021/07/09 05:31:06;;;;;;;3.42;1.48;;;21.90;69.70;;;;;;21052266;28;20145;-78
2021/07/09 05:41:06;;;;;;;3.75;1.88;;;21.90;69.70;;;;;;21018028;28;20036;-81
2021/07/09 05:51:07;;;;;;;4.03;1.40;;;21.90;69.80;;;;;;21059173;28;20041;-82
2021/07/09 06:01:08;;;;;;;4.95;2.00;;;21.90;69.80;;;;;;20948773;28;20297;-77
2021/07/09 06:11:11;;;;;;;1.92;1.73;;;21.90;69.70;;;;;;21017394;28;20031;-77
2021/07/09 06:21:12;;;;;;;2.15;1.67;;;21.90;69.80;;;;;;21065576;28;20389;-78
2021/07/09 06:31:12;;;;;;;3.28;1.67;;;21.90;69.70;;;;;;21065370;28;20113;-78
2021/07/09 06:41:13;;;;;;;4.53;1.50;;;21.90;69.70;;;;;;20967294;28;20086;-79
2021/07/09 06:51:14;;;;;;;2.20;1.80;;;21.90;69.70;;;;;;21009973;28;20119;-78
2021/07/09 07:01:15;;;;;;;2.03;1.83;;;21.90;69.70;;;;;;21024823;28;20085;-78
2021/07/09 07:11:15;;;;;;;2.17;1.45;;;21.90;69.70;;;;;;21058713;28;20100;-79
2021/07/09 07:21:16;;;;;;;1.67;1.55;;;21.90;69.70;;;;;;21060520;28;20181;-78
2021/07/09 07:31:17;;;;;;;2.17;1.48;;;21.90;69.70;;;;;;21060257;28;20088;-79
2021/07/09 07:41:18;;;;;;;2.70;1.27;;;21.90;69.70;;;;;;21059479;28;20046;-79
2021/07/09 07:51:20;;;;;;;2.90;2.00;;;21.90;69.70;;;;;;20996726;28;20036;-77
2021/07/09 08:01:21;;;;;;;1.73;1.42;;;21.90;69.70;;;;;;21042019;28;20114;-77
2021/07/09 08:11:22;;;;;;;1.88;1.42;;;21.90;69.70;;;;;;21042330;28;20036;-79
2021/07/09 08:21:22;;;;;;;1.50;1.20;;;21.90;69.80;;;;;;21039035;28;20039;-77
2021/07/09 08:31:23;;;;;;;2.92;1.55;;;21.90;69.70;;;;;;21055047;28;20716;-78
2021/07/09 08:41:24;;;;;;;1.80;1.52;;;21.90;69.80;;;;;;21047239;28;20039;-77
2021/07/09 08:51:25;;;;;;;2.33;1.30;;;21.80;69.70;;;;;;21039398;28;20052;-78
2021/07/09 09:01:26;;;;;;;1.90;1.65;;;21.90;69.80;;;;;;21021976;28;20401;-78
2021/07/09 09:11:29;;;;;;;2.20;1.30;;;21.80;69.80;;;;;;21025247;28;20032;-88
2021/07/09 09:21:30;;;;;;;1.83;1.42;;;21.80;69.80;;;;;;21039097;28;20118;-85
2021/07/09 09:31:36;;;;;;;2.85;1.65;;;21.80;69.80;;;;;;21439710;22;20049;-81
2021/07/09 09:41:36;;;;;;;2.53;1.60;;;21.80;69.80;;;;;;20894070;28;20053;-78
2021/07/09 09:51:37;;;;;;;1.45;1.13;;;21.80;69.90;;;;;;20835155;28;20033;-79
2021/07/09 10:01:46;;;;;;;3.75;1.75;;;21.80;70.00;;;;;;20821416;28;20033;-78
2021/07/09 10:11:47;;;;;;;2.63;1.58;;;21.80;70.10;;;;;;20913595;28;20041;-77
2021/07/09 10:21:48;;;;;;;2.28;1.65;;;21.80;70.20;;;;;;20901666;28;20072;-75
2021/07/09 10:31:51;;;;;;;2.33;1.50;;;21.80;70.30;;;;;;20877828;28;20529;-74
2021/07/09 10:41:51;;;;;;;3.00;1.67;;;21.80;70.30;;;;;;20878103;28;20135;-83
2021/07/09 10:51:52;;;;;;;3.83;1.55;;;21.70;70.40;;;;;;20897721;28;20064;-83
2021/07/09 11:01:54;;;;;;;2.15;1.42;;;21.80;70.60;;;;;;20871697;28;20060;-83
2021/07/09 11:12:01;;;;;;;4.07;1.80;;;21.80;70.70;;;;;;20852071;28;20021;-79
2021/07/09 11:22:07;;;;;;;2.60;1.65;;;21.70;70.70;;;;;;20905914;28;20047;-81
2021/07/09 11:32:12;;;;;;;3.47;1.70;;;21.80;70.80;;;;;;20957352;28;20045;-83
2021/07/09 11:42:21;;;;;;;3.72;1.88;;;21.70;70.90;;;;;;20857615;28;20558;-87
2021/07/09 11:52:26;;;;;;;4.13;1.65;;;21.80;71.10;;;;;;20892015;28;20496;-82
2021/07/09 12:02:30;;;;;;;1.88;1.67;;;21.70;71.20;;;;;;20892870;28;20115;-80
2021/07/09 12:12:33;;;;;;;3.40;2.10;;;21.70;71.30;;;;;;20888816;28;20032;-77
2021/07/09 12:22:39;;;;;;;4.22;2.10;;;21.70;71.50;;;;;;20888849;28;20064;-77
2021/07/09 12:32:51;;;;;;;2.58;2.00;;;21.70;71.60;;;;;;20927971;28;20090;-77
2021/07/09 12:42:51;;;;;;;2.78;1.73;;;21.70;71.80;;;;;;20897906;28;20066;-82
2021/07/09 12:52:52;;;;;;;3.90;1.92;;;21.80;72.00;;;;;;20906237;28;20479;-80
2021/07/09 13:02:53;;;;;;;2.80;2.30;;;21.70;72.10;;;;;;20895392;28;20506;-78
2021/07/09 13:12:53;;;;;;;2.40;2.10;;;21.60;72.00;;;;;;20906153;28;20029;-78
2021/07/09 13:22:55;;;;;;;3.38;2.00;;;21.60;72.10;;;;;;20916955;28;20113;-77
2021/07/09 13:32:56;;;;;;;4.88;2.20;;;21.60;72.10;;;;;;20950039;28;20099;-78
2021/07/09 13:43:04;;;;;;;3.08;2.00;;;21.70;72.20;;;;;;20910631;28;20467;-79
2021/07/09 13:53:05;;;;;;;3.15;1.70;;;21.60;72.20;;;;;;20888763;28;20395;-80
2021/07/09 14:03:06;;;;;;;3.05;1.98;;;21.60;72.20;;;;;;20889352;28;20037;-80
2021/07/09 14:13:06;;;;;;;3.10;2.40;;;21.60;72.20;;;;;;20834441;28;20034;-77
2021/07/09 14:23:07;;;;;;;3.08;1.73;;;21.60;72.20;;;;;;20845100;28;20747;-77
2021/07/09 14:33:08;;;;;;;3.55;2.42;;;21.60;72.30;;;;;;20895271;28;20106;-77
2021/07/09 14:43:09;;;;;;;3.38;1.50;;;21.60;72.40;;;;;;20878240;28;20044;-78
2021/07/09 14:53:11;;;;;;;2.38;1.83;;;21.60;72.40;;;;;;20880152;28;20475;-78
2021/07/09 15:03:11;;;;;;;5.10;1.63;;;21.50;72.30;;;;;;20870738;28;20029;-79
2021/07/09 15:13:12;;;;;;;3.40;1.70;;;21.50;72.30;;;;;;20814417;28;20034;-80
2021/07/09 15:23:13;;;;;;;2.03;1.70;;;21.50;72.20;;;;;;20853751;28;20121;-81
2021/07/09 15:33:13;;;;;;;2.60;1.73;;;21.50;72.30;;;;;;20893914;28;20041;-78
2021/07/09 15:43:14;;;;;;;2.78;1.67;;;21.50;72.40;;;;;;20890150;28;20151;-79
2021/07/09 15:53:14;;;;;;;3.92;2.25;;;21.60;72.40;;;;;;20892062;28;20057;-80
2021/07/09 16:03:15;;;;;;;3.58;1.58;;;21.50;72.30;;;;;;20892370;28;20029;-81
2021/07/09 16:13:15;;;;;;;1.58;1.35;;;21.50;72.20;;;;;;20946566;28;20139;-80
2021/07/09 16:23:17;;;;;;;1.33;1.10;;;21.50;72.10;;;;;;20947936;28;20033;-79
2021/07/09 16:33:19;;;;;;;2.83;1.60;;;21.50;72.00;;;;;;20878711;28;20079;-84
2021/07/09 16:43:19;;;;;;;2.55;1.08;;;21.50;72.00;;;;;;20916592;28;20037;-83
2021/07/09 16:53:20;;;;;;;2.28;1.48;;;21.40;71.90;;;;;;20876782;28;20033;-81
2021/07/09 17:03:21;;;;;;;3.17;1.23;;;21.50;71.90;;;;;;20857937;28;20432;-81
2021/07/09 17:13:22;;;;;;;0.70;0.65;;;21.40;71.70;;;;;;20889127;28;20431;-80
2021/07/09 17:23:22;;;;;;;1.27;0.90;;;21.40;71.50;;;;;;20884554;28;20122;-83
2021/07/09 17:33:23;;;;;;;3.55;1.35;;;21.40;71.20;;;;;;20930907;28;20029;-84
2021/07/09 17:43:23;;;;;;;4.07;0.80;;;21.40;71.10;;;;;;21003989;28;20471;-84
2021/07/09 17:53:24;;;;;;;1.23;0.70;;;21.30;70.70;;;;;;21002706;28;20068;-84
2021/07/09 18:03:32;;;;;;;1.42;0.88;;;21.30;70.50;;;;;;20831211;28;20042;-84
2021/07/09 18:13:33;;;;;;;1.27;0.80;;;21.30;70.30;;;;;;20889238;28;20029;-83
2021/07/09 18:23:34;;;;;;;1.50;1.10;;;21.30;70.20;;;;;;20890070;28;20062;-81
2021/07/09 18:33:36;;;;;;;1.50;0.90;;;21.30;70.10;;;;;;20904361;28;20452;-83
2021/07/09 18:43:37;;;;;;;0.98;0.85;;;21.20;70.10;;;;;;20902432;28;20051;-83
2021/07/09 18:53:39;;;;;;;0.90;0.70;;;21.20;70.20;;;;;;20886911;28;20376;-82
2021/07/09 19:03:40;;;;;;;1.55;0.80;;;21.20;70.30;;;;;;20884272;28;20076;-83
2021/07/09 19:13:41;;;;;;;0.65;0.57;;;21.20;70.40;;;;;;20818384;28;20387;-81
2021/07/09 19:23:41;;;;;;;1.23;0.77;;;21.20;70.50;;;;;;20818766;28;20077;-81
2021/07/09 19:33:42;;;;;;;0.90;0.80;;;21.20;70.50;;;;;;20820673;28;20041;-83
2021/07/09 19:43:42;;;;;;;2.15;0.82;;;21.20;70.60;;;;;;20831326;28;20045;-85
2021/07/09 19:53:44;;;;;;;2.35;0.70;;;21.10;70.60;;;;;;20815256;28;20400;-84
2021/07/09 20:03:45;;;;;;;1.20;0.73;;;21.10;70.60;;;;;;20846181;28;20034;-85
2021/07/09 20:13:45;;;;;;;1.02;0.70;;;21.10;70.60;;;;;;20849462;28;20466;-85
2021/07/09 20:23:48;;;;;;;1.08;0.60;;;21.10;70.70;;;;;;20806268;28;20045;-84
2021/07/09 20:33:48;;;;;;;1.45;0.77;;;21.10;70.70;;;;;;20818408;28;20040;-84
2021/07/09 20:43:49;;;;;;;1.10;1.00;;;21.10;70.80;;;;;;20816038;28;20041;-84
2021/07/09 20:53:50;;;;;;;1.20;0.87;;;21.10;70.80;;;;;;20812706;28;20049;-85
2021/07/09 21:03:51;;;;;;;2.45;1.00;;;21.10;70.90;;;;;;20811781;28;20379;-84
2021/07/09 21:13:52;;;;;;;1.00;0.90;;;21.10;71.00;;;;;;20810332;28;20053;-85
2021/07/09 21:23:52;;;;;;;3.53;1.33;;;21.10;71.00;;;;;;20810079;28;20521;-84
2021/07/09 21:33:53;;;;;;;1.50;1.23;;;21.10;71.10;;;;;;20812265;28;20051;-82
2021/07/09 21:43:54;;;;;;;1.10;1.00;;;21.10;71.10;;;;;;20791662;28;20542;-84
2021/07/09 21:53:56;;;;;;;2.25;1.35;;;21.10;71.10;;;;;;20809355;28;20029;-84
2021/07/09 22:03:57;;;;;;;2.72;1.55;;;21.00;71.10;;;;;;20796546;28;20037;-84
2021/07/09 22:13:58;;;;;;;2.45;1.40;;;21.00;71.20;;;;;;20807104;28;20033;-84
2021/07/09 22:23:59;;;;;;;1.98;1.70;;;21.00;71.30;;;;;;20805293;28;20498;-85
2021/07/09 22:34:00;;;;;;;3.40;1.50;;;21.00;71.40;;;;;;20837507;28;20099;-84
2021/07/09 22:44:00;;;;;;;2.08;1.60;;;21.00;71.40;;;;;;20821898;28;20475;-83
2021/07/09 22:54:01;;;;;;;2.20;2.00;;;21.00;71.40;;;;;;20804017;28;20517;-84
2021/07/09 23:04:04;;;;;;;3.65;1.52;;;21.00;71.40;;;;;;20821089;28;20047;-83
2021/07/09 23:14:05;;;;;;;2.20;1.63;;;21.00;71.40;;;;;;20821653;28;20037;-83
2021/07/09 23:24:08;;;;;;;2.83;1.60;;;21.00;71.40;;;;;;20791084;28;20399;-84
2021/07/09 23:34:09;;;;;;;3.83;1.98;;;20.90;71.40;;;;;;20823290;28;20068;-84
2021/07/09 23:44:10;;;;;;;3.38;1.70;;;21.00;71.50;;;;;;20865704;28;20442;-83
2021/07/09 23:54:14;;;;;;;3.55;1.92;;;21.00;71.50;;;;;;20919299;28;20379;-84
